createdAt,value
2022-12-26T00:00:01.829Z,10.7
2022-12-26T00:07:01.681Z,10.75
2022-12-26T00:14:01.896Z,10.75
2022-12-26T00:21:02.128Z,10.66
2022-12-26T00:28:02.262Z,10.62
2022-12-26T00:35:02.143Z,10.62
2022-12-26T00:42:01.500Z,10.62
2022-12-26T00:49:01.431Z,10.57
2022-12-26T00:56:01.839Z,10.55
2022-12-26T01:00:02.441Z,10.55
2022-12-26T01:07:01.333Z,10.66
2022-12-26T01:14:01.738Z,10.59
2022-12-26T01:21:01.991Z,10.59
2022-12-26T01:28:02.139Z,10.69
2022-12-26T01:35:02.166Z,10.67
2022-12-26T01:42:01.691Z,10.72
2022-12-26T01:49:02.109Z,10.72
2022-12-26T01:56:01.937Z,10.66
2022-12-26T02:00:02.503Z,10.66
2022-12-26T02:07:02.224Z,10.68
2022-12-26T02:14:01.339Z,10.66
2022-12-26T02:21:01.528Z,10.69
2022-12-26T02:28:01.755Z,10.69
2022-12-26T02:35:02.269Z,10.66
2022-12-26T02:42:01.677Z,10.71
2022-12-26T02:49:01.378Z,10.71
2022-12-26T02:56:02.223Z,10.62
2022-12-26T03:00:01.804Z,10.61
2022-12-26T03:07:02.280Z,10.61
2022-12-26T03:14:02.585Z,10.58
2022-12-26T03:21:01.860Z,10.58
2022-12-26T03:28:01.979Z,10.58
2022-12-26T03:35:02.352Z,10.58
2022-12-26T03:42:01.458Z,10.58
2022-12-26T03:49:01.475Z,10.58
2022-12-26T03:56:01.992Z,10.58
2022-12-26T04:00:01.596Z,10.65
2022-12-26T04:07:02.200Z,10.55
2022-12-26T04:14:01.805Z,10.55
2022-12-26T04:21:02.309Z,10.51
2022-12-26T04:28:01.838Z,10.45
2022-12-26T04:35:01.944Z,10.45
2022-12-26T04:42:01.441Z,10.41
2022-12-26T04:49:01.889Z,10.41
2022-12-26T04:56:01.451Z,10.42
2022-12-26T05:00:02.067Z,10.42
2022-12-26T05:07:01.673Z,10.32
2022-12-26T05:14:01.592Z,10.32
2022-12-26T05:21:01.794Z,10.25
2022-12-26T05:28:01.471Z,10.24
2022-12-26T05:35:02.233Z,10.21
2022-12-26T05:42:01.667Z,10.21
2022-12-26T05:49:01.381Z,10.17
2022-12-26T05:56:01.499Z,10.17
2022-12-26T06:00:02.115Z,10.17
2022-12-26T06:07:02.152Z,10.15
2022-12-26T06:14:01.639Z,10.14
2022-12-26T06:21:01.466Z,10.14
2022-12-26T06:28:02.205Z,10.07
2022-12-26T06:35:02.112Z,10.1
2022-12-26T06:42:02.199Z,10.17
2022-12-26T06:49:01.625Z,10.17
2022-12-26T06:56:01.738Z,10.13
2022-12-26T07:00:02.300Z,10.13
2022-12-26T07:07:01.666Z,10.06
2022-12-26T07:14:01.726Z,10.04
2022-12-26T07:21:01.644Z,10.12
2022-12-26T07:28:02.260Z,10.12
2022-12-26T07:35:02.241Z,10.2
2022-12-26T07:42:01.493Z,10.1
2022-12-26T07:49:01.491Z,10.1
2022-12-26T07:56:01.480Z,10.1
2022-12-26T08:00:02.020Z,10.09
2022-12-26T08:07:01.735Z,10.09
2022-12-26T08:14:01.823Z,10.1
2022-12-26T08:21:01.855Z,10.12
2022-12-26T08:28:02.067Z,10.06
2022-12-26T08:35:01.906Z,10.06
2022-12-26T08:42:02.027Z,10.1
2022-12-26T08:49:01.986Z,10.08
2022-12-26T08:56:01.989Z,10.08
2022-12-26T09:00:01.527Z,10.11
2022-12-26T09:07:01.470Z,10.04
2022-12-26T09:14:02.108Z,10.04
2022-12-26T09:21:01.474Z,10.05
2022-12-26T09:28:01.705Z,10.1
2022-12-26T09:35:02.175Z,10.1
2022-12-26T09:42:01.368Z,10.1
2022-12-26T09:49:01.818Z,10.11
2022-12-26T09:56:02.159Z,10.11
2022-12-26T10:00:01.727Z,10.11
2022-12-26T10:07:02.237Z,10.15
2022-12-26T10:14:01.566Z,10.2
2022-12-26T10:21:02.050Z,10.2
2022-12-26T10:28:02.086Z,10.27
2022-12-26T10:35:01.697Z,10.24
2022-12-26T10:42:02.153Z,10.24
2022-12-26T10:49:01.854Z,10.28
2022-12-26T10:56:01.353Z,10.22
2022-12-26T11:00:02.244Z,10.22
2022-12-26T11:07:01.579Z,10.28
2022-12-26T11:14:03.081Z,10.31
2022-12-26T11:21:01.726Z,10.31
2022-12-26T11:28:01.842Z,10.38
2022-12-26T11:35:01.742Z,10.38
2022-12-26T11:42:01.656Z,10.46
2022-12-26T11:49:01.647Z,10.46
2022-12-26T11:56:01.819Z,10.51
2022-12-26T12:00:02.479Z,10.51
2022-12-26T12:07:01.891Z,10.51
2022-12-26T12:14:02.272Z,10.49
2022-12-26T12:21:01.878Z,10.31
2022-12-26T12:28:02.271Z,10.31
2022-12-26T12:35:02.139Z,10.29
2022-12-26T12:42:01.353Z,10.29
2022-12-26T12:49:02.269Z,10.27
2022-12-26T12:56:02.222Z,10.27
2022-12-26T13:00:01.755Z,10.23
2022-12-26T13:07:01.509Z,10.23
2022-12-26T13:14:02.141Z,10.18
2022-12-26T13:21:01.485Z,10.13
2022-12-26T13:28:01.754Z,9.92
2022-12-26T13:35:02.004Z,9.92
2022-12-26T13:42:01.858Z,9.7
2022-12-26T13:49:02.248Z,9.61
2022-12-26T13:56:02.306Z,9.61
2022-12-26T14:00:01.988Z,9.43
2022-12-26T14:07:01.746Z,9.31
2022-12-26T14:14:02.111Z,9.31
2022-12-26T14:21:01.462Z,9.24
2022-12-26T14:28:01.706Z,9.24
2022-12-26T14:35:02.033Z,9.16
2022-12-26T14:42:01.888Z,9.16
2022-12-26T14:49:01.497Z,9.04
2022-12-26T14:56:01.588Z,8.95
2022-12-26T15:00:03.903Z,8.95
2022-12-26T15:07:01.360Z,8.88
2022-12-26T15:14:01.835Z,8.83
2022-12-26T15:21:01.626Z,8.83
2022-12-26T15:28:02.057Z,8.58
2022-12-26T15:35:01.992Z,8.56
2022-12-26T15:42:02.301Z,8.56
2022-12-26T15:49:01.974Z,8.44
2022-12-26T15:56:01.631Z,8.37
2022-12-26T16:00:02.309Z,8.37
2022-12-26T16:07:01.641Z,8.23
2022-12-26T16:14:01.769Z,8.23
2022-12-26T16:21:01.388Z,8.23
2022-12-26T16:28:01.752Z,8.18
2022-12-26T16:35:01.838Z,8.09
2022-12-26T16:42:01.871Z,7.95
2022-12-26T16:49:01.699Z,7.95
2022-12-26T16:56:01.773Z,7.79
2022-12-26T17:00:02.413Z,7.56
2022-12-26T17:07:01.876Z,7.56
2022-12-26T17:14:01.719Z,7.49
2022-12-26T17:21:01.607Z,7.32
2022-12-26T17:28:01.579Z,7.32
2022-12-26T17:35:02.598Z,7.13
2022-12-26T17:42:02.264Z,7
2022-12-26T17:49:01.819Z,6.81
2022-12-26T17:56:02.286Z,6.81
2022-12-26T18:00:01.959Z,6.64
2022-12-26T18:07:02.263Z,6.64
2022-12-26T18:14:01.856Z,6.55
2022-12-26T18:21:01.626Z,6.45
2022-12-26T18:28:02.091Z,6.31
2022-12-26T18:35:01.999Z,6.31
2022-12-26T18:42:01.408Z,6.23
2022-12-26T18:49:02.029Z,6.06
2022-12-26T18:56:01.654Z,6
2022-12-26T19:00:02.217Z,6
2022-12-26T19:07:01.509Z,5.91
2022-12-26T19:14:01.335Z,5.91
2022-12-26T19:21:01.344Z,5.89
2022-12-26T19:28:01.497Z,5.73
2022-12-26T19:35:02.215Z,5.55
2022-12-26T19:42:01.399Z,5.55
2022-12-26T19:49:01.464Z,5.54
2022-12-26T19:56:01.720Z,5.52
2022-12-26T20:00:02.424Z,5.52
2022-12-26T20:07:01.894Z,5.4
2022-12-26T20:14:02.174Z,5.32
2022-12-26T20:21:02.113Z,5.32
2022-12-26T20:28:01.722Z,5.26
2022-12-26T20:35:02.683Z,5.22
2022-12-26T20:42:01.868Z,5.22
2022-12-26T20:49:01.593Z,5.06
2022-12-26T20:56:01.828Z,4.99
2022-12-26T21:00:02.421Z,4.99
2022-12-26T21:07:01.639Z,5.08
2022-12-26T21:14:02.231Z,5.04
2022-12-26T21:21:01.654Z,4.79
2022-12-26T21:28:01.787Z,4.79
2022-12-26T21:35:01.947Z,4.95
2022-12-26T21:42:02.297Z,4.79
2022-12-26T21:49:01.999Z,4.79
2022-12-26T21:56:01.562Z,4.92
2022-12-26T22:00:02.163Z,4.84
2022-12-26T22:07:01.493Z,4.84
2022-12-26T22:14:01.867Z,5.05
2022-12-26T22:21:01.714Z,4.98
2022-12-26T22:28:01.528Z,4.98
2022-12-26T22:35:01.501Z,4.93
2022-12-26T22:42:02.609Z,4.74
2022-12-26T22:49:01.624Z,4.99
2022-12-26T22:56:01.722Z,4.99
2022-12-26T23:00:10.064Z,4.85
2022-12-26T23:07:01.938Z,4.79
2022-12-26T23:14:01.729Z,4.79
2022-12-26T23:21:01.451Z,4.79
2022-12-26T23:28:02.073Z,4.67
2022-12-26T23:35:02.206Z,4.67
2022-12-26T23:42:02.295Z,4.67
2022-12-26T23:49:01.450Z,4.47
2022-12-26T23:56:02.303Z,4.62
